Time;durP1;ratioP1;P1;durP2;ratioP2;P2;SDS_P1;SDS_P2;PMS_P1;PMS_P2;Temp;Humidity;BMP_temperature;BMP_pressure;BME280_temperature;BME280_humidity;BME280_pressure;Samples;Min_cycle;Max_cycle;Signal;HPM_P1;HPM_P2
2021/04/02 00:00:36;;;;;;;2.25;1.48;;;5.00;65.90;;;;;;5074899;28;20047;-74
2021/04/02 00:03:24;;;;;;;1.10;0.95;;;5.00;66.20;;;;;;5073618;28;20036;-74
2021/04/02 00:05:51;;;;;;;2.42;1.15;;;4.90;66.50;;;;;;5074890;28;20028;-73
2021/04/02 00:08:17;;;;;;;1.20;1.10;;;4.90;66.70;;;;;;5073939;28;20028;-74
2021/04/02 00:10:48;;;;;;;3.53;1.23;;;4.80;66.70;;;;;;5074685;28;20103;-74
2021/04/02 00:13:18;;;;;;;2.70;1.60;;;4.80;67.00;;;;;;5074627;28;20061;-74
2021/04/02 00:15:45;;;;;;;3.13;1.50;;;4.70;67.40;;;;;;5074747;28;20031;-73
2021/04/02 00:18:10;;;;;;;2.92;1.80;;;4.70;67.70;;;;;;5073252;28;20070;-74
2021/04/02 00:20:36;;;;;;;5.47;1.85;;;4.60;68.00;;;;;;5074422;28;20037;-73
2021/04/02 00:23:04;;;;;;;2.42;1.65;;;4.60;68.20;;;;;;5074314;28;20047;-74
2021/04/02 00:25:30;;;;;;;4.65;1.92;;;4.50;68.60;;;;;;5073069;28;20484;-74
2021/04/02 00:27:55;;;;;;;6.93;1.90;;;4.50;69.00;;;;;;5074394;28;20032;-74
2021/04/02 00:30:30;;;;;;;2.97;1.75;;;4.40;69.10;;;;;;5073038;28;20017;-74
2021/04/02 00:32:56;;;;;;;2.45;1.45;;;4.40;69.40;;;;;;5074497;28;20043;-74
2021/04/02 00:35:21;;;;;;;4.80;2.22;;;4.30;69.60;;;;;;5072885;28;20024;-74
2021/04/02 00:37:47;;;;;;;4.88;2.17;;;4.30;69.80;;;;;;5072909;28;20024;-74
2021/04/02 00:40:20;;;;;;;3.50;1.90;;;4.30;70.20;;;;;;5074054;28;20029;-74
2021/04/02 00:42:47;;;;;;;1.98;1.58;;;4.20;70.50;;;;;;5074390;28;20036;-73
2021/04/02 00:45:14;;;;;;;4.55;1.90;;;4.20;70.60;;;;;;5072591;28;20085;-74
2021/04/02 00:47:40;;;;;;;2.97;1.42;;;4.20;70.70;;;;;;5074024;28;20027;-74
2021/04/02 00:50:11;;;;;;;1.73;1.20;;;4.20;70.70;;;;;;5073830;28;20091;-73
2021/04/02 00:52:36;;;;;;;2.17;1.48;;;4.10;71.40;;;;;;5073884;28;20024;-74
2021/04/02 00:55:02;;;;;;;3.60;1.48;;;4.10;70.80;;;;;;5073834;28;20074;-73
2021/04/02 00:57:28;;;;;;;2.05;1.40;;;4.10;70.80;;;;;;5072536;28;20116;-74
2021/04/02 00:59:53;;;;;;;1.55;1.00;;;4.00;70.80;;;;;;5073738;28;20103;-74
2021/04/02 01:02:19;;;;;;;3.08;2.78;;;4.00;70.80;;;;;;5073651;28;20052;-74
2021/04/02 01:04:45;;;;;;;2.03;1.75;;;4.00;70.90;;;;;;5073470;28;20102;-73
2021/04/02 01:07:10;;;;;;;3.00;1.27;;;3.90;71.00;;;;;;5072306;28;20032;-73
2021/04/02 01:09:38;;;;;;;2.15;1.30;;;3.90;71.00;;;;;;5073559;28;20033;-73
2021/04/02 01:12:05;;;;;;;1.33;1.15;;;3.80;71.00;;;;;;5072247;28;20029;-74
2021/04/02 01:14:30;;;;;;;1.50;1.15;;;3.90;71.10;;;;;;5073969;28;20056;-74
2021/04/02 01:16:56;;;;;;;2.75;1.50;;;3.80;71.10;;;;;;5073976;28;20049;-73
2021/04/02 01:19:47;;;;;;;1.65;0.90;;;3.80;71.20;;;;;;5073786;28;20056;-73
2021/04/02 01:22:21;;;;;;;1.25;0.90;;;3.80;71.30;;;;;;5073165;28;20139;-72
2021/04/02 01:25:11;;;;;;;2.03;1.20;;;3.80;71.20;;;;;;5072045;28;20115;-73
2021/04/02 01:28:05;;;;;;;1.67;1.05;;;3.80;71.20;;;;;;5072143;28;20028;-73
2021/04/02 01:30:31;;;;;;;1.67;1.23;;;3.80;71.20;;;;;;5073290;28;20482;-74
2021/04/02 01:32:59;;;;;;;1.75;1.02;;;3.80;71.20;;;;;;5071935;28;20024;-73
2021/04/02 01:35:34;;;;;;;1.58;1.35;;;3.80;71.20;;;;;;5071858;28;20075;-73
2021/04/02 01:38:10;;;;;;;0.75;0.70;;;3.80;71.20;;;;;;5073202;28;20021;-73
2021/04/02 01:40:39;;;;;;;1.35;1.25;;;3.80;71.20;;;;;;5073726;28;20081;-73
2021/04/02 01:43:16;;;;;;;1.08;0.98;;;3.70;71.10;;;;;;5073008;28;20016;-72
2021/04/02 01:45:43;;;;;;;1.23;0.77;;;3.70;71.10;;;;;;5073558;28;20067;-73
2021/04/02 01:48:10;;;;;;;0.77;0.75;;;3.70;71.10;;;;;;5073248;28;20024;-73
2021/04/02 01:50:40;;;;;;;0.93;0.70;;;3.70;71.80;;;;;;5073353;28;20348;-73
2021/04/02 01:53:07;;;;;;;1.17;0.80;;;3.80;71.10;;;;;;5071691;28;20350;-73
2021/04/02 01:55:33;;;;;;;0.60;0.60;;;3.70;71.00;;;;;;5073046;28;20021;-73
2021/04/02 01:58:00;;;;;;;0.70;0.70;;;3.70;71.00;;;;;;5071669;28;20035;-73
2021/04/02 02:00:31;;;;;;;0.80;0.80;;;3.70;71.00;;;;;;5072869;28;20174;-73
2021/04/02 02:02:59;;;;;;;0.50;0.47;;;3.70;71.10;;;;;;5071900;28;20024;-73
2021/04/02 02:05:26;;;;;;;0.88;0.60;;;3.70;71.10;;;;;;5072819;28;20086;-73
2021/04/02 02:07:53;;;;;;;0.90;0.57;;;3.80;71.10;;;;;;5073385;28;20016;-73
2021/04/02 02:10:21;;;;;;;1.58;0.50;;;3.70;71.10;;;;;;5072837;28;20082;-73
2021/04/02 02:12:47;;;;;;;0.75;0.70;;;3.70;71.00;;;;;;5073179;28;20021;-73
2021/04/02 02:15:16;;;;;;;0.70;0.70;;;3.80;71.10;;;;;;5072774;28;20028;-73
2021/04/02 02:17:47;;;;;;;3.15;1.38;;;3.80;71.10;;;;;;5072764;28;20103;-73
2021/04/02 02:20:13;;;;;;;1.23;1.00;;;3.80;71.20;;;;;;5072815;28;20027;-73
2021/04/02 02:22:41;;;;;;;0.73;0.73;;;3.80;71.20;;;;;;5072529;28;20493;-73
2021/04/02 02:25:10;;;;;;;1.20;0.90;;;3.70;71.20;;;;;;5071342;28;20040;-73
2021/04/02 02:27:36;;;;;;;0.50;0.50;;;3.70;71.20;;;;;;5071448;28;20016;-73
2021/04/02 02:30:08;;;;;;;1.13;0.70;;;3.70;71.30;;;;;;5072615;28;20028;-73
2021/04/02 02:32:34;;;;;;;0.80;0.65;;;3.70;71.30;;;;;;5076267;28;20032;-73
2021/04/02 02:35:00;;;;;;;1.80;0.63;;;3.70;71.30;;;;;;5077105;28;20020;-73
2021/04/02 02:37:26;;;;;;;0.75;0.75;;;3.70;71.30;;;;;;5076549;28;20099;-73
2021/04/02 02:39:51;;;;;;;0.73;0.73;;;3.70;71.30;;;;;;5076406;28;20029;-73
2021/04/02 02:42:17;;;;;;;0.93;0.77;;;3.70;71.30;;;;;;5076890;28;20107;-74
2021/04/02 02:44:44;;;;;;;1.02;0.93;;;3.70;71.30;;;;;;5076143;28;20033;-73
2021/04/02 02:47:10;;;;;;;0.88;0.82;;;3.70;71.40;;;;;;5075022;28;20016;-73
2021/04/02 02:49:37;;;;;;;2.92;0.73;;;3.70;71.40;;;;;;5076779;28;20074;-73
2021/04/02 02:52:04;;;;;;;0.55;0.55;;;3.70;71.40;;;;;;5076195;28;20016;-73
2021/04/02 02:54:31;;;;;;;1.30;0.70;;;3.70;71.40;;;;;;5076116;28;20035;-73
2021/04/02 02:56:58;;;;;;;2.05;0.50;;;3.70;71.50;;;;;;5074860;28;20032;-73
2021/04/02 02:59:26;;;;;;;1.08;0.70;;;3.70;71.60;;;;;;5074700;28;20024;-73
2021/04/02 03:01:54;;;;;;;0.57;0.55;;;3.70;71.60;;;;;;5076533;28;20095;-73
2021/04/02 03:04:21;;;;;;;2.58;0.70;;;3.60;71.60;;;;;;5074699;28;20033;-73
2021/04/02 03:06:47;;;;;;;0.35;0.35;;;3.70;71.70;;;;;;5075875;28;20472;-73
2021/04/02 03:09:16;;;;;;;0.85;0.68;;;3.60;71.60;;;;;;5075947;28;20066;-73
2021/04/02 03:11:43;;;;;;;0.63;0.60;;;3.70;71.80;;;;;;5076367;28;20017;-73
2021/04/02 03:14:19;;;;;;;0.80;0.60;;;3.70;71.70;;;;;;5075920;28;20040;-73
2021/04/02 03:16:48;;;;;;;0.63;0.45;;;3.70;71.70;;;;;;5075808;28;20044;-73
2021/04/02 03:19:16;;;;;;;0.57;0.47;;;3.70;71.70;;;;;;5075780;28;20126;-73
2021/04/02 03:21:43;;;;;;;0.43;0.43;;;3.70;71.60;;;;;;5074161;28;20021;-73
2021/04/02 03:24:09;;;;;;;0.43;0.40;;;3.80;72.30;;;;;;5074351;28;20029;-73
2021/04/02 03:26:36;;;;;;;0.40;0.40;;;3.80;71.70;;;;;;5075675;28;20106;-73
2021/04/02 03:29:02;;;;;;;0.52;0.43;;;3.80;71.60;;;;;;5075471;28;20028;-73
2021/04/02 03:31:31;;;;;;;1.35;0.75;;;3.80;71.70;;;;;;5075460;28;20016;-73
2021/04/02 03:33:59;;;;;;;0.75;0.63;;;3.80;71.80;;;;;;5075432;28;20056;-73
2021/04/02 03:36:26;;;;;;;1.10;0.55;;;3.80;71.70;;;;;;5075424;28;20020;-73
2021/04/02 03:38:54;;;;;;;0.65;0.65;;;3.90;71.80;;;;;;5075316;28;20047;-74
2021/04/02 03:41:27;;;;;;;0.60;0.60;;;3.90;71.80;;;;;;5075878;28;20048;-74
2021/04/02 03:43:54;;;;;;;0.57;0.57;;;3.90;71.90;;;;;;5072631;28;20106;-73
2021/04/02 03:46:22;;;;;;;0.70;0.50;;;3.90;71.80;;;;;;5075230;28;20016;-73
2021/04/02 03:48:49;;;;;;;0.60;0.60;;;4.00;71.80;;;;;;5075135;28;20067;-73
2021/04/02 03:51:20;;;;;;;0.40;0.40;;;4.00;71.90;;;;;;5074749;28;20017;-73
2021/04/02 03:53:51;;;;;;;0.77;0.52;;;4.00;71.90;;;;;;5073876;28;20052;-73
2021/04/02 03:56:29;;;;;;;0.50;0.50;;;4.00;71.80;;;;;;5075109;28;20021;-73
2021/04/02 03:58:56;;;;;;;1.02;0.73;;;4.10;71.70;;;;;;5073636;28;20411;-73
2021/04/02 04:01:25;;;;;;;0.35;0.35;;;4.20;71.70;;;;;;5073637;28;20020;-73
2021/04/02 04:03:53;;;;;;;0.55;0.55;;;4.30;71.60;;;;;;5074842;28;20032;-73
2021/04/02 04:06:20;;;;;;;0.60;0.60;;;4.30;71.50;;;;;;5073568;28;20032;-74
2021/04/02 04:08:50;;;;;;;1.38;0.93;;;4.30;71.40;;;;;;5074775;28;20024;-74
2021/04/02 04:11:17;;;;;;;0.63;0.40;;;4.40;71.70;;;;;;5075314;28;20106;-73
2021/04/02 04:13:47;;;;;;;0.75;0.50;;;4.30;71.60;;;;;;5075234;28;20052;-73
2021/04/02 04:16:15;;;;;;;0.65;0.60;;;4.30;71.80;;;;;;5074661;28;20362;-73
2021/04/02 04:18:44;;;;;;;1.58;0.82;;;4.30;72.00;;;;;;5074612;28;20031;-73
2021/04/02 04:21:11;;;;;;;0.68;0.68;;;4.30;72.20;;;;;;5075125;28;20028;-73
2021/04/02 04:23:39;;;;;;;0.55;0.55;;;4.30;72.20;;;;;;5074243;28;20485;-73
2021/04/02 04:26:05;;;;;;;0.82;0.52;;;4.20;72.20;;;;;;5074313;28;20124;-73
2021/04/02 04:28:33;;;;;;;2.42;1.15;;;4.20;72.20;;;;;;5074327;28;20461;-73
2021/04/02 04:31:02;;;;;;;0.93;0.88;;;4.20;72.40;;;;;;5074219;28;20115;-74
2021/04/02 04:33:29;;;;;;;2.30;0.85;;;4.20;72.40;;;;;;5074811;28;20032;-74
2021/04/02 04:35:56;;;;;;;0.95;0.70;;;4.10;72.50;;;;;;5072977;28;20024;-74
2021/04/02 04:38:23;;;;;;;1.15;1.05;;;4.20;72.60;;;;;;5072892;28;20117;-74
2021/04/02 04:40:52;;;;;;;0.50;0.50;;;4.20;72.60;;;;;;5074592;28;20017;-73
2021/04/02 04:43:18;;;;;;;1.30;1.15;;;4.10;72.60;;;;;;5073997;28;20028;-74
2021/04/02 04:45:44;;;;;;;1.00;0.75;;;4.20;72.70;;;;;;5072698;28;20028;-74
2021/04/02 04:48:10;;;;;;;1.13;0.93;;;4.20;72.70;;;;;;5072692;28;20111;-74
2021/04/02 04:50:36;;;;;;;0.93;0.57;;;4.10;72.70;;;;;;5073925;28;20028;-74
2021/04/02 04:53:07;;;;;;;0.90;0.73;;;4.10;72.80;;;;;;5074340;28;20089;-73
2021/04/02 04:55:36;;;;;;;0.52;0.50;;;4.10;72.90;;;;;;5074078;28;20031;-73
2021/04/02 04:58:03;;;;;;;1.58;0.80;;;4.10;72.90;;;;;;5073831;28;20067;-73
2021/04/02 05:00:31;;;;;;;1.13;0.80;;;4.10;72.90;;;;;;5072473;28;20024;-74
2021/04/02 05:02:57;;;;;;;0.80;0.77;;;4.00;72.90;;;;;;5072436;28;20031;-74
2021/04/02 05:05:37;;;;;;;0.75;0.75;;;4.00;73.00;;;;;;5073581;28;20461;-74
2021/04/02 05:08:06;;;;;;;1.63;0.70;;;4.00;73.00;;;;;;5073639;28;20052;-74
2021/04/02 05:10:33;;;;;;;0.68;0.68;;;4.00;73.00;;;;;;5072254;28;20028;-74
2021/04/02 05:13:01;;;;;;;1.27;0.80;;;4.00;73.00;;;;;;5073511;28;20108;-73
2021/04/02 05:15:27;;;;;;;0.63;0.63;;;4.00;73.10;;;;;;5073471;28;20059;-73
2021/04/02 05:17:54;;;;;;;1.25;0.80;;;4.00;73.10;;;;;;5072114;28;20028;-74
2021/04/02 05:20:26;;;;;;;1.58;1.00;;;4.00;73.20;;;;;;5073899;28;20019;-74
2021/04/02 05:22:52;;;;;;;1.77;1.00;;;4.00;73.20;;;;;;5071998;28;20040;-74
2021/04/02 05:25:17;;;;;;;0.50;0.50;;;4.00;73.20;;;;;;5073113;28;20040;-73
2021/04/02 05:27:43;;;;;;;0.65;0.65;;;4.00;73.10;;;;;;5073890;28;20033;-74
2021/04/02 05:30:09;;;;;;;0.82;0.80;;;4.00;73.10;;;;;;5073130;28;20024;-73
2021/04/02 05:32:34;;;;;;;0.60;0.60;;;4.00;73.20;;;;;;5073542;28;20027;-75
2021/04/02 05:35:00;;;;;;;0.50;0.50;;;4.00;73.20;;;;;;5073126;28;20428;-74
2021/04/02 05:37:25;;;;;;;0.90;0.47;;;4.00;73.20;;;;;;5073186;28;20103;-74
2021/04/02 05:39:51;;;;;;;0.82;0.60;;;4.00;73.20;;;;;;5073089;28;20025;-74
2021/04/02 05:42:22;;;;;;;1.52;1.15;;;4.00;73.20;;;;;;5071798;28;20020;-74
2021/04/02 05:44:50;;;;;;;1.17;0.77;;;4.00;73.20;;;;;;5072487;28;20115;-74
2021/04/02 05:47:17;;;;;;;0.70;0.70;;;4.00;73.30;;;;;;5071693;28;20021;-74
2021/04/02 05:49:44;;;;;;;1.05;0.70;;;4.00;73.20;;;;;;5073039;28;20021;-74
2021/04/02 05:52:12;;;;;;;0.50;0.50;;;4.10;73.20;;;;;;5072953;28;20023;-74
2021/04/02 05:54:41;;;;;;;0.52;0.52;;;4.00;73.10;;;;;;5072721;28;20361;-74
2021/04/02 05:57:09;;;;;;;0.70;0.70;;;4.10;73.20;;;;;;5071472;28;20029;-74
2021/04/02 05:59:36;;;;;;;0.40;0.40;;;4.10;73.10;;;;;;5072933;28;20025;-74
2021/04/02 06:02:02;;;;;;;0.90;0.60;;;4.10;73.10;;;;;;5072356;28;20021;-74
2021/04/02 06:04:30;;;;;;;2.15;0.60;;;4.10;73.10;;;;;;5072753;28;20028;-74
2021/04/02 06:06:56;;;;;;;0.50;0.50;;;4.10;73.10;;;;;;5074956;28;20473;-74
2021/04/02 06:09:23;;;;;;;1.35;0.60;;;4.20;73.10;;;;;;5076884;28;20032;-74
2021/04/02 06:11:49;;;;;;;0.55;0.38;;;4.20;73.00;;;;;;5077432;28;20025;-74
2021/04/02 06:14:14;;;;;;;0.25;0.25;;;4.20;72.90;;;;;;5076855;28;20388;-74
2021/04/02 06:16:47;;;;;;;0.40;0.40;;;4.30;73.00;;;;;;5076810;28;20051;-75
2021/04/02 06:19:12;;;;;;;1.00;0.50;;;4.30;72.90;;;;;;5076999;28;20024;-74
2021/04/02 06:21:46;;;;;;;0.82;0.75;;;4.30;72.80;;;;;;5076656;28;20107;-74
2021/04/02 06:24:14;;;;;;;0.60;0.60;;;4.40;72.80;;;;;;5076451;28;20123;-74
2021/04/02 06:26:39;;;;;;;1.00;0.73;;;4.40;72.80;;;;;;5076570;28;20021;-74
2021/04/02 06:29:05;;;;;;;0.30;0.30;;;4.40;72.80;;;;;;5076480;28;20027;-74
2021/04/02 06:31:35;;;;;;;0.70;0.63;;;4.50;72.80;;;;;;5076344;28;20100;-75
2021/04/02 06:34:04;;;;;;;;;;;4.50;72.70;;;;;;5076839;28;20362;-75
2021/04/02 06:36:30;;;;;;;;;;;4.50;72.40;;;;;;5076611;28;20414;-74
2021/04/02 06:38:58;;;;;;;1.75;0.93;;;4.50;72.30;;;;;;5076609;28;19904;-75
2021/04/02 06:41:25;;;;;;;1.25;0.88;;;4.60;72.30;;;;;;5075012;28;20013;-74
2021/04/02 06:43:56;;;;;;;1.15;0.60;;;4.60;72.30;;;;;;5076340;28;20041;-74
2021/04/02 06:46:28;;;;;;;0.55;0.55;;;4.70;72.30;;;;;;5075179;28;20024;-74
2021/04/02 06:49:07;;;;;;;0.77;0.65;;;4.70;72.30;;;;;;5074882;28;20561;-74
2021/04/02 06:51:36;;;;;;;0.40;0.40;;;4.80;72.30;;;;;;5074736;28;20500;-75
2021/04/02 06:54:03;;;;;;;0.40;0.40;;;4.90;72.20;;;;;;5076077;28;20031;-74
2021/04/02 06:56:30;;;;;;;1.08;0.98;;;4.90;72.10;;;;;;5074648;28;20024;-75
2021/04/02 06:58:58;;;;;;;0.30;0.30;;;5.00;72.00;;;;;;5076005;28;20055;-75
2021/04/02 07:01:25;;;;;;;0.40;0.40;;;5.10;71.90;;;;;;5074658;28;20064;-71
2021/04/02 07:03:52;;;;;;;0.40;0.40;;;5.20;71.90;;;;;;5076317;28;20450;-74
2021/04/02 07:06:19;;;;;;;0.73;0.73;;;5.20;71.90;;;;;;5075800;28;20029;-74
2021/04/02 07:08:45;;;;;;;0.88;0.63;;;5.30;71.80;;;;;;5076293;28;20481;-74
2021/04/02 07:11:12;;;;;;;0.80;0.60;;;5.40;71.90;;;;;;5074503;28;20021;-74
2021/04/02 07:13:52;;;;;;;0.93;0.88;;;5.50;71.90;;;;;;5074396;28;20028;-73
2021/04/02 07:16:21;;;;;;;;;;;5.60;71.80;;;;;;5076017;28;20036;-72
2021/04/02 07:18:47;;;;;;;;;;;5.60;71.50;;;;;;5076032;28;19908;-72
2021/04/02 07:21:13;;;;;;;1.08;0.77;;;5.60;71.30;;;;;;5075595;28;19912;-71
2021/04/02 07:23:40;;;;;;;0.77;0.77;;;5.70;71.40;;;;;;5075398;28;20040;-71
2021/04/02 07:26:08;;;;;;;1.40;0.60;;;5.80;71.50;;;;;;5076134;28;20048;-72
2021/04/02 07:28:36;;;;;;;1.45;0.65;;;5.90;71.40;;;;;;5075476;28;20036;-72
2021/04/02 07:31:02;;;;;;;1.00;0.82;;;6.00;71.30;;;;;;5075882;28;20035;-72
2021/04/02 07:33:29;;;;;;;5.57;1.88;;;6.10;71.10;;;;;;5075353;28;20024;-73
2021/04/02 07:36:02;;;;;;;1.10;0.70;;;6.30;70.90;;;;;;5075222;28;20020;-74
2021/04/02 07:38:32;;;;;;;2.08;0.63;;;6.50;70.50;;;;;;5075799;28;20040;-74
2021/04/02 07:41:05;;;;;;;3.03;0.80;;;6.70;70.10;;;;;;5075286;28;20028;-72
2021/04/02 07:43:32;;;;;;;1.63;0.80;;;6.90;69.80;;;;;;5075171;28;20036;-74
2021/04/02 07:46:15;;;;;;;1.17;0.60;;;7.10;69.50;;;;;;5075493;28;20457;-74
2021/04/02 07:48:41;;;;;;;0.70;0.70;;;7.40;69.00;;;;;;5075512;28;20065;-73
2021/04/02 07:51:07;;;;;;;1.42;1.13;;;7.60;68.80;;;;;;5073781;28;20036;-72
2021/04/02 07:53:32;;;;;;;1.80;1.00;;;7.80;68.80;;;;;;5074883;28;20077;-74
2021/04/02 07:56:05;;;;;;;0.73;0.70;;;7.90;68.50;;;;;;5074924;28;20025;-74
2021/04/02 07:58:32;;;;;;;3.78;1.15;;;7.90;68.40;;;;;;5073099;28;20591;-76
2021/04/02 08:00:59;;;;;;;1.55;1.27;;;7.90;68.50;;;;;;5073050;28;20365;-76
2021/04/02 08:03:29;;;;;;;1.30;1.20;;;7.80;68.80;;;;;;5075773;28;20039;-78
2021/04/02 08:05:55;;;;;;;1.35;1.27;;;7.60;69.20;;;;;;5073554;28;20033;-73
2021/04/02 08:08:23;;;;;;;1.98;1.20;;;7.60;69.40;;;;;;5074632;28;20526;-75
2021/04/02 08:11:25;;;;;;;1.60;1.23;;;7.50;69.30;;;;;;5073230;28;20066;-74
2021/04/02 08:14:01;;;;;;;1.35;1.08;;;7.50;69.40;;;;;;5074431;28;20025;-74
2021/04/02 08:16:35;;;;;;;2.15;1.42;;;7.50;69.40;;;;;;5074487;28;20470;-73
2021/04/02 08:19:11;;;;;;;3.08;1.98;;;7.60;69.30;;;;;;5074364;28;20485;-73
2021/04/02 08:21:39;;;;;;;2.03;1.10;;;7.60;68.90;;;;;;5074014;28;20029;-74
2021/04/02 08:24:07;;;;;;;2.78;1.35;;;7.50;69.00;;;;;;5073002;28;20060;-74
2021/04/02 08:26:34;;;;;;;0.93;0.90;;;7.70;69.00;;;;;;5074344;28;20017;-74
2021/04/02 08:29:02;;;;;;;1.67;1.02;;;7.80;68.50;;;;;;5073431;28;20020;-73
2021/04/02 08:31:27;;;;;;;4.05;1.20;;;7.90;68.20;;;;;;5072901;28;20035;-74
2021/04/02 08:33:55;;;;;;;1.35;1.10;;;7.80;68.20;;;;;;5072736;28;20020;-74
2021/04/02 08:36:22;;;;;;;2.15;1.05;;;7.70;68.50;;;;;;5073578;28;20031;-75
2021/04/02 08:38:49;;;;;;;1.73;1.15;;;7.70;68.40;;;;;;5072778;28;20043;-77
2021/04/02 08:41:20;;;;;;;1.80;1.65;;;7.80;68.30;;;;;;5074476;28;20070;-75
2021/04/02 08:43:45;;;;;;;0.93;0.90;;;7.80;68.10;;;;;;5073847;28;20099;-75
2021/04/02 08:46:13;;;;;;;0.80;0.80;;;8.00;67.90;;;;;;5073799;28;20103;-75
2021/04/02 08:48:39;;;;;;;1.88;1.70;;;8.10;67.40;;;;;;5072485;28;20026;-75
2021/04/02 08:51:04;;;;;;;0.82;0.82;;;8.30;67.30;;;;;;5072415;28;20025;-75
2021/04/02 08:53:40;;;;;;;1.30;1.20;;;8.40;66.90;;;;;;5073671;28;20030;-75
2021/04/02 08:56:07;;;;;;;2.35;1.40;;;8.50;66.90;;;;;;5073681;28;20033;-75
2021/04/02 08:58:34;;;;;;;1.77;1.40;;;8.40;66.70;;;;;;5072461;28;20021;-75
2021/04/02 09:01:01;;;;;;;3.97;1.45;;;8.20;66.70;;;;;;5073672;28;20576;-75
2021/04/02 09:03:28;;;;;;;1.58;1.30;;;8.00;66.90;;;;;;5072310;28;20028;-75
2021/04/02 09:05:54;;;;;;;1.50;1.40;;;8.00;67.30;;;;;;5073579;28;20509;-73
2021/04/02 09:08:20;;;;;;;2.90;1.42;;;8.10;67.00;;;;;;5073519;28;20512;-75
2021/04/02 09:10:47;;;;;;;1.88;1.45;;;8.20;66.70;;;;;;5072270;28;20021;-76
2021/04/02 09:13:12;;;;;;;2.22;1.35;;;8.00;66.90;;;;;;5073468;28;20025;-75
2021/04/02 09:15:38;;;;;;;4.45;1.70;;;7.90;66.90;;;;;;5073815;28;20028;-74
2021/04/02 09:18:18;;;;;;;3.03;1.60;;;7.80;67.00;;;;;;5073414;28;20028;-73
2021/04/02 09:20:44;;;;;;;3.38;1.40;;;7.80;67.00;;;;;;5073963;28;20111;-74
2021/04/02 09:23:11;;;;;;;1.60;1.45;;;7.70;67.10;;;;;;5073144;28;20148;-76
2021/04/02 09:25:44;;;;;;;1.30;1.20;;;7.70;67.10;;;;;;5073286;28;20036;-74
2021/04/02 09:28:10;;;;;;;1.80;1.45;;;7.70;67.00;;;;;;5073327;28;20028;-75
2021/04/02 09:30:35;;;;;;;2.60;1.98;;;7.80;66.90;;;;;;5071963;28;20022;-74
2021/04/02 09:33:01;;;;;;;2.33;1.60;;;7.90;66.80;;;;;;5073469;28;20542;-76
2021/04/02 09:35:27;;;;;;;2.75;1.55;;;7.90;66.50;;;;;;5073268;28;20043;-74
2021/04/02 09:37:53;;;;;;;1.52;1.30;;;7.90;66.40;;;;;;5073398;28;20031;-74
2021/04/02 09:40:25;;;;;;;2.95;1.15;;;8.00;66.50;;;;;;5073322;28;20012;-74
2021/04/02 09:42:51;;;;;;;2.70;1.60;;;8.10;66.30;;;;;;5073635;28;20031;-75
2021/04/02 09:45:17;;;;;;;3.55;1.95;;;8.20;65.80;;;;;;5072895;28;20444;-73
2021/04/02 09:47:45;;;;;;;2.95;2.10;;;8.10;65.80;;;;;;5071806;28;20491;-74
2021/04/02 09:50:13;;;;;;;3.72;2.28;;;8.00;66.00;;;;;;5071612;28;20469;-75
2021/04/02 09:52:40;;;;;;;3.92;2.25;;;8.00;66.00;;;;;;5073003;28;20555;-74
2021/04/02 09:55:07;;;;;;;1.58;1.40;;;8.00;66.00;;;;;;5072966;28;20040;-74
2021/04/02 09:57:33;;;;;;;2.47;1.50;;;8.20;65.90;;;;;;5072983;28;20020;-74
2021/04/02 09:59:58;;;;;;;2.53;1.83;;;8.40;65.40;;;;;;5072887;28;20028;-75
2021/04/02 10:02:24;;;;;;;2.33;1.75;;;8.50;65.00;;;;;;5071538;28;20036;-75
2021/04/02 10:04:50;;;;;;;1.80;1.52;;;8.50;64.80;;;;;;5073352;28;20373;-75
2021/04/02 10:07:15;;;;;;;3.28;1.50;;;8.40;65.00;;;;;;5071537;28;20017;-74
2021/04/02 10:09:41;;;;;;;2.55;2.15;;;8.40;65.10;;;;;;5072832;28;20020;-74
2021/04/02 10:12:07;;;;;;;2.85;1.75;;;8.60;64.90;;;;;;5072783;28;20037;-75
2021/04/02 10:14:33;;;;;;;3.25;1.88;;;8.70;64.40;;;;;;5071365;28;20474;-74
2021/04/02 10:16:59;;;;;;;2.20;1.80;;;8.70;64.30;;;;;;5073218;28;20082;-74
2021/04/02 10:19:24;;;;;;;3.38;1.83;;;8.50;64.50;;;;;;5073087;28;20028;-73
2021/04/02 10:21:50;;;;;;;2.22;1.90;;;8.60;64.40;;;;;;5072403;28;20037;-74
2021/04/02 10:24:16;;;;;;;2.83;1.70;;;8.70;64.10;;;;;;5072599;28;20037;-74
2021/04/02 10:26:43;;;;;;;2.58;1.42;;;8.70;64.10;;;;;;5072630;28;20066;-74
2021/04/02 10:29:09;;;;;;;2.28;1.70;;;8.90;64.00;;;;;;5071281;28;20017;-73
2021/04/02 10:31:35;;;;;;;1.90;1.50;;;9.20;63.40;;;;;;5072551;28;20027;-74
2021/04/02 10:34:01;;;;;;;2.03;1.85;;;9.40;62.90;;;;;;5072509;28;20049;-73
2021/04/02 10:36:27;;;;;;;1.65;1.40;;;9.50;62.80;;;;;;5072540;28;20182;-73
2021/04/02 10:38:52;;;;;;;3.45;1.50;;;9.60;62.50;;;;;;5072546;28;20469;-74
2021/04/02 10:41:18;;;;;;;2.33;1.80;;;9.50;63.30;;;;;;5072513;28;20032;-74
2021/04/02 10:43:44;;;;;;;2.58;1.80;;;9.40;62.90;;;;;;5071074;28;20115;-72
2021/04/02 10:46:12;;;;;;;3.25;1.60;;;9.20;62.90;;;;;;5072496;28;20496;-73
2021/04/02 10:48:37;;;;;;;3.65;1.90;;;9.20;63.20;;;;;;5072385;28;20429;-73
2021/04/02 10:51:03;;;;;;;3.17;1.42;;;9.40;62.90;;;;;;5071223;28;20012;-75
2021/04/02 10:53:29;;;;;;;1.85;1.23;;;9.80;62.40;;;;;;5075550;28;20029;-73
2021/04/02 10:56:00;;;;;;;5.50;1.88;;;10.00;61.90;;;;;;5076165;28;20020;-74
2021/04/02 10:58:26;;;;;;;2.75;1.70;;;10.00;61.70;;;;;;5076607;28;20025;-73
2021/04/02 11:00:51;;;;;;;2.15;1.40;;;9.70;62.10;;;;;;5076071;28;20405;-74
2021/04/02 11:03:17;;;;;;;2.15;1.55;;;9.50;62.70;;;;;;5075711;28;20055;-73
2021/04/02 11:05:42;;;;;;;5.15;1.65;;;9.70;62.60;;;;;;5074492;28;20493;-74
2021/04/02 11:08:08;;;;;;;6.72;2.20;;;9.80;61.80;;;;;;5075909;28;20078;-73
2021/04/02 11:10:34;;;;;;;3.53;1.60;;;9.70;61.70;;;;;;5075845;28;20024;-72
2021/04/02 11:12:59;;;;;;;1.30;1.20;;;9.70;61.80;;;;;;5076358;28;20478;-71
2021/04/02 11:15:25;;;;;;;2.70;2.13;;;9.80;61.60;;;;;;5075766;28;20074;-72
2021/04/02 11:17:52;;;;;;;3.88;1.75;;;9.80;61.50;;;;;;5074479;28;20116;-70
2021/04/02 11:20:19;;;;;;;4.75;1.80;;;9.70;61.50;;;;;;5075752;28;20029;-72
2021/04/02 11:22:45;;;;;;;1.98;1.50;;;9.70;61.60;;;;;;5075472;28;20052;-77
2021/04/02 11:25:12;;;;;;;3.33;1.58;;;9.70;61.70;;;;;;5074175;28;20098;-71
2021/04/02 11:27:38;;;;;;;5.55;1.98;;;9.80;61.50;;;;;;5075512;28;20370;-72
2021/04/02 11:30:06;;;;;;;1.67;1.45;;;9.80;61.20;;;;;;5075546;28;20473;-71
2021/04/02 11:32:32;;;;;;;1.70;1.60;;;9.90;61.10;;;;;;5074187;28;20021;-71
2021/04/02 11:34:57;;;;;;;1.55;1.45;;;10.10;60.70;;;;;;5074125;28;20081;-72
2021/04/02 11:37:23;;;;;;;5.60;2.35;;;10.20;60.30;;;;;;5074139;28;20020;-71
2021/04/02 11:39:49;;;;;;;3.00;1.60;;;10.10;60.20;;;;;;5074076;28;20021;-71
2021/04/02 11:42:15;;;;;;;1.45;1.35;;;10.00;60.60;;;;;;5075485;28;20058;-71
2021/04/02 11:44:41;;;;;;;1.92;1.25;;;10.20;60.30;;;;;;5073811;28;20483;-71
2021/04/02 11:47:07;;;;;;;4.53;1.65;;;10.30;60.20;;;;;;5075172;28;20025;-71
2021/04/02 11:49:32;;;;;;;5.50;2.20;;;10.20;59.90;;;;;;5075580;28;20078;-71
2021/04/02 11:51:58;;;;;;;3.10;1.80;;;10.00;59.80;;;;;;5073776;28;20021;-72
2021/04/02 11:54:24;;;;;;;2.58;1.73;;;9.90;60.00;;;;;;5075057;28;20380;-71
2021/04/02 11:56:50;;;;;;;3.08;1.77;;;10.00;60.20;;;;;;5075446;28;20085;-74
2021/04/02 11:59:16;;;;;;;4.63;2.50;;;10.30;59.60;;;;;;5073757;28;20099;-71
2021/04/02 12:01:42;;;;;;;7.35;2.95;;;10.30;59.30;;;;;;5075483;28;20025;-72
2021/04/02 12:04:09;;;;;;;2.03;1.80;;;10.40;59.20;;;;;;5073707;28;20036;-71
2021/04/02 12:06:36;;;;;;;4.25;1.98;;;10.40;59.10;;;;;;5074728;28;20024;-71
2021/04/02 12:09:02;;;;;;;2.90;1.85;;;10.40;59.20;;;;;;5073467;28;20441;-71
2021/04/02 12:11:28;;;;;;;4.18;1.88;;;10.40;58.90;;;;;;5074659;28;20029;-71
2021/04/02 12:13:53;;;;;;;2.53;1.88;;;10.30;59.20;;;;;;5074623;28;20311;-72
2021/04/02 12:16:18;;;;;;;2.55;1.85;;;10.30;59.20;;;;;;5074517;28;20028;-71
2021/04/02 12:18:44;;;;;;;5.35;2.33;;;10.30;59.10;;;;;;5074616;28;20029;-72
2021/04/02 12:21:10;;;;;;;5.45;2.25;;;10.10;59.20;;;;;;5074427;28;20021;-71
2021/04/02 12:23:35;;;;;;;2.53;1.90;;;10.10;59.50;;;;;;5074274;28;20520;-70
2021/04/02 12:26:01;;;;;;;2.75;1.90;;;10.20;59.40;;;;;;5074316;28;20036;-73
2021/04/02 12:28:27;;;;;;;5.88;2.47;;;10.10;59.10;;;;;;5074307;28;20719;-70
2021/04/02 12:30:52;;;;;;;3.50;2.20;;;9.80;59.30;;;;;;5074850;28;20037;-71
2021/04/02 12:33:18;;;;;;;4.28;2.10;;;9.70;59.60;;;;;;5074341;28;20102;-70
2021/04/02 12:35:43;;;;;;;4.35;2.10;;;9.80;59.60;;;;;;5074253;28;20035;-71
2021/04/02 12:38:09;;;;;;;1.50;1.40;;;9.90;59.40;;;;;;5074199;28;20036;-71
2021/04/02 12:40:36;;;;;;;3.08;1.50;;;10.10;59.20;;;;;;5074622;28;20020;-71
2021/04/02 12:43:03;;;;;;;2.30;1.38;;;10.20;58.90;;;;;;5074038;28;20024;-71
2021/04/02 12:45:29;;;;;;;2.53;1.45;;;10.30;58.90;;;;;;5073908;28;20032;-70
2021/04/02 12:47:55;;;;;;;2.70;1.50;;;10.20;58.90;;;;;;5072701;28;20023;-72
2021/04/02 12:50:23;;;;;;;4.07;1.73;;;10.20;59.00;;;;;;5073911;28;20484;-71
2021/04/02 12:52:49;;;;;;;1.98;1.73;;;10.20;59.20;;;;;;5073940;28;20389;-71
2021/04/02 12:55:17;;;;;;;2.92;1.55;;;10.00;59.30;;;;;;5073855;28;20089;-71
2021/04/02 12:57:43;;;;;;;1.55;1.40;;;9.90;59.30;;;;;;5074294;28;20017;-71
2021/04/02 13:00:15;;;;;;;1.63;1.50;;;9.90;59.50;;;;;;5073763;28;20021;-71